createdAt,value
2022-12-15T00:01:12.429Z,4.30
2022-12-15T00:03:40.151Z,4.70
2022-12-15T00:06:07.616Z,5.17
2022-12-15T00:08:34.978Z,3.90
2022-12-15T00:11:03.135Z,4.73
2022-12-15T00:13:30.880Z,5.30
2022-12-15T00:15:58.622Z,4.90
2022-12-15T00:18:25.995Z,4.60
2022-12-15T00:20:58.642Z,8.00
2022-12-15T00:23:26.399Z,4.90
2022-12-15T00:25:53.950Z,4.13
2022-12-15T00:28:21.262Z,5.03
2022-12-15T00:30:49.816Z,5.23
2022-12-15T00:33:17.816Z,4.60
2022-12-15T00:35:45.400Z,5.10
2022-12-15T00:38:15.254Z,6.70
2022-12-15T00:40:42.470Z,4.47
2022-12-15T00:43:09.690Z,4.23
2022-12-15T00:45:37.083Z,4.13
2022-12-15T00:48:04.749Z,4.70
2022-12-15T00:50:32.238Z,4.23
2022-12-15T00:52:59.585Z,3.97
2022-12-15T00:55:26.842Z,3.70
2022-12-15T00:57:54.308Z,4.00
2022-12-15T01:00:22.157Z,3.90
2022-12-15T01:02:49.651Z,3.93
2022-12-15T01:05:17.082Z,4.60
2022-12-15T01:07:44.494Z,4.27
2022-12-15T01:10:18.509Z,4.43
2022-12-15T01:12:47.175Z,3.97
2022-12-15T01:15:15.202Z,2.87
2022-12-15T01:17:42.469Z,3.37
2022-12-15T01:20:13.671Z,3.60
2022-12-15T01:22:42.589Z,3.70
2022-12-15T01:25:11.642Z,3.83
2022-12-15T01:27:39.296Z,3.30
2022-12-15T01:30:10.130Z,4.00
2022-12-15T01:32:41.429Z,3.10
2022-12-15T01:35:12.047Z,4.30
2022-12-15T01:37:39.791Z,3.00
2022-12-15T01:40:09.453Z,4.67
2022-12-15T01:42:36.645Z,3.07
2022-12-15T01:45:28.949Z,2.90
2022-12-15T01:48:23.430Z,3.00
2022-12-15T01:51:03.239Z,3.57
2022-12-15T01:53:39.868Z,6.53
2022-12-15T01:56:10.205Z,3.27
2022-12-15T01:58:43.398Z,3.10
2022-12-15T02:01:11.195Z,3.10
2022-12-15T02:03:40.735Z,3.37
2022-12-15T02:06:10.201Z,3.27
2022-12-15T02:08:38.082Z,3.10
2022-12-15T02:11:59.292Z,3.33
2022-12-15T02:14:43.377Z,3.47
2022-12-15T02:17:57.839Z,3.00
2022-12-15T02:21:01.216Z,3.03
2022-12-15T02:24:10.286Z,2.93
2022-12-15T02:26:52.632Z,2.60
2022-12-15T02:30:16.167Z,4.80
2022-12-15T02:33:08.132Z,2.80
2022-12-15T02:35:57.272Z,3.23
2022-12-15T02:38:38.096Z,4.53
2022-12-15T02:41:26.806Z,2.87
2022-12-15T02:43:54.104Z,3.20
2022-12-15T02:46:46.359Z,3.20
2022-12-15T02:49:39.575Z,2.90
2022-12-15T02:52:34.667Z,4.00
2022-12-15T02:55:46.658Z,5.23
2022-12-15T02:58:49.003Z,3.40
2022-12-15T03:01:41.906Z,3.20
2022-12-15T03:04:12.790Z,5.37
2022-12-15T03:06:40.326Z,3.77
2022-12-15T03:09:07.927Z,4.67
2022-12-15T03:11:37.149Z,3.87
2022-12-15T03:14:04.447Z,12.07
2022-12-15T03:16:31.834Z,8.60
2022-12-15T03:18:59.209Z,4.63
2022-12-15T03:21:26.481Z,3.50
2022-12-15T03:23:53.875Z,6.03
2022-12-15T03:26:21.153Z,5.47
2022-12-15T03:28:48.494Z,4.53
2022-12-15T03:31:16.148Z,4.80
2022-12-15T03:33:43.496Z,4.60
2022-12-15T03:36:10.901Z,4.13
2022-12-15T03:38:38.175Z,3.97
2022-12-15T03:41:05.530Z,3.60
2022-12-15T03:43:33.156Z,3.67
2022-12-15T03:46:00.968Z,3.20
2022-12-15T03:48:28.257Z,3.27
2022-12-15T03:50:55.541Z,4.10
2022-12-15T03:53:23.061Z,3.50
2022-12-15T03:55:50.311Z,3.70
2022-12-15T03:58:17.613Z,5.63
2022-12-15T04:00:44.915Z,3.20
2022-12-15T04:03:12.263Z,3.30
2022-12-15T04:05:40.125Z,3.30
2022-12-15T04:08:07.515Z,3.43
2022-12-15T04:10:35.932Z,3.70
2022-12-15T04:13:10.282Z,3.30
2022-12-15T04:15:40.061Z,3.43
2022-12-15T04:18:10.529Z,3.47
2022-12-15T04:20:40.463Z,3.77
2022-12-15T04:23:08.209Z,4.70
2022-12-15T04:25:36.684Z,3.97
2022-12-15T04:28:05.951Z,4.27
2022-12-15T04:30:34.013Z,4.27
2022-12-15T04:33:04.949Z,11.60
2022-12-15T04:35:35.578Z,7.23
2022-12-15T04:38:03.998Z,9.37
2022-12-15T04:40:31.750Z,8.53
2022-12-15T04:42:59.330Z,8.47
2022-12-15T04:45:29.105Z,13.57
2022-12-15T04:48:00.889Z,14.23
2022-12-15T04:50:29.049Z,13.27
2022-12-15T04:52:56.462Z,13.77
2022-12-15T04:55:24.545Z,14.50
2022-12-15T04:57:52.154Z,11.90
2022-12-15T05:00:22.653Z,11.97
2022-12-15T05:02:50.016Z,12.47
2022-12-15T05:05:17.696Z,10.37
2022-12-15T05:07:44.934Z,12.03
2022-12-15T05:10:15.143Z,6.00
2022-12-15T05:12:43.829Z,6.90
2022-12-15T05:15:11.251Z,6.93
2022-12-15T05:17:41.675Z,9.40
2022-12-15T05:20:10.162Z,9.43
2022-12-15T05:22:37.397Z,9.67
2022-12-15T05:25:05.256Z,10.03
2022-12-15T05:27:32.591Z,13.77
2022-12-15T05:29:59.867Z,14.80
2022-12-15T05:32:27.133Z,14.73
2022-12-15T05:34:54.406Z,18.00
2022-12-15T05:37:21.788Z,23.83
2022-12-15T05:39:49.075Z,73.60
2022-12-15T05:42:16.384Z,33.37
2022-12-15T05:44:43.732Z,26.23
2022-12-15T05:47:12.158Z,23.40
2022-12-15T05:49:39.435Z,66.87
2022-12-15T05:52:07.108Z,19.30
2022-12-15T05:54:34.298Z,17.97
2022-12-15T05:57:01.745Z,27.83
2022-12-15T05:59:28.956Z,13.23
2022-12-15T06:01:56.382Z,11.30
2022-12-15T06:04:24.067Z,14.90
2022-12-15T06:06:51.591Z,26.77
2022-12-15T06:09:19.103Z,20.50
2022-12-15T06:11:46.508Z,22.53
2022-12-15T06:14:13.973Z,17.30
2022-12-15T06:16:51.179Z,12.43
2022-12-15T06:19:19.469Z,13.27
2022-12-15T06:21:47.276Z,14.27
2022-12-15T06:24:14.723Z,20.13
2022-12-15T06:26:42.034Z,27.23
2022-12-15T06:29:12.394Z,23.90
2022-12-15T06:31:41.602Z,13.00
2022-12-15T06:34:13.799Z,19.97
2022-12-15T06:36:42.008Z,19.13
2022-12-15T06:39:14.020Z,20.03
2022-12-15T06:41:44.647Z,18.20
2022-12-15T06:44:16.171Z,19.67
2022-12-15T06:46:43.954Z,28.87
2022-12-15T06:49:11.368Z,28.97
2022-12-15T06:51:38.870Z,23.97
2022-12-15T06:54:06.274Z,29.67
2022-12-15T06:56:35.782Z,31.47
2022-12-15T06:59:10.659Z,30.87
2022-12-15T07:01:38.108Z,28.53
2022-12-15T07:04:06.040Z,37.87
2022-12-15T07:06:37.143Z,40.80
2022-12-15T07:09:07.651Z,31.17
2022-12-15T07:11:35.659Z,34.70
2022-12-15T07:14:03.049Z,28.07
2022-12-15T07:16:31.518Z,33.57
2022-12-15T07:18:58.959Z,33.63
2022-12-15T07:21:26.380Z,29.73
2022-12-15T07:23:56.270Z,36.03
2022-12-15T07:26:25.183Z,32.47
2022-12-15T07:28:53.275Z,19.70
2022-12-15T07:31:20.962Z,23.20
2022-12-15T07:33:48.569Z,22.77
2022-12-15T07:36:16.323Z,22.03
2022-12-15T07:38:43.686Z,15.03
2022-12-15T07:41:11.047Z,14.97
2022-12-15T07:43:38.597Z,15.90
2022-12-15T07:46:07.288Z,16.83
2022-12-15T07:48:34.830Z,18.50
2022-12-15T07:51:15.238Z,24.20
2022-12-15T07:53:44.854Z,33.90
2022-12-15T07:56:12.538Z,22.33
2022-12-15T07:58:39.771Z,22.00
2022-12-15T08:01:12.225Z,23.53
2022-12-15T08:03:40.893Z,23.37
2022-12-15T08:06:12.646Z,24.10
2022-12-15T08:08:41.254Z,20.47
2022-12-15T08:11:12.468Z,22.57
2022-12-15T08:16:29.502Z,58.00
2022-12-15T08:18:56.733Z,52.63
2022-12-15T08:21:24.878Z,34.90
2022-12-15T08:23:52.319Z,26.10
2022-12-15T08:26:30.889Z,29.17
2022-12-15T08:29:24.491Z,23.87
2022-12-15T08:31:52.165Z,22.67
2022-12-15T08:34:20.067Z,33.67
2022-12-15T08:36:47.371Z,47.13
2022-12-15T08:39:15.027Z,40.20
2022-12-15T08:41:42.262Z,28.07
2022-12-15T08:44:09.708Z,32.37
2022-12-15T08:46:37.046Z,24.87
2022-12-15T08:49:04.709Z,20.50
2022-12-15T08:51:33.170Z,17.93
2022-12-15T08:54:01.496Z,32.60
2022-12-15T08:56:30.086Z,40.73
2022-12-15T08:59:02.117Z,27.00
2022-12-15T09:01:32.103Z,27.80
2022-12-15T09:04:00.062Z,18.63
2022-12-15T09:06:34.425Z,14.43
2022-12-15T09:09:06.567Z,14.63
2022-12-15T09:11:34.942Z,14.57
2022-12-15T09:14:02.575Z,13.50
2022-12-15T09:16:30.110Z,12.97
2022-12-15T09:19:00.250Z,11.33
2022-12-15T09:21:30.490Z,13.13
2022-12-15T09:24:01.245Z,9.17
2022-12-15T09:26:33.351Z,9.13
2022-12-15T09:29:01.671Z,9.70
2022-12-15T09:31:32.471Z,11.33
2022-12-15T09:34:01.207Z,17.80
2022-12-15T09:36:30.067Z,16.63
2022-12-15T09:38:57.363Z,25.17
2022-12-15T09:41:30.516Z,32.93
2022-12-15T09:44:06.712Z,19.33
2022-12-15T09:47:22.188Z,26.93
2022-12-15T09:49:57.207Z,23.97
2022-12-15T09:52:46.204Z,25.33
2022-12-15T09:55:25.376Z,21.33
2022-12-15T09:58:10.973Z,14.83
2022-12-15T10:00:55.450Z,17.10
2022-12-15T10:03:51.392Z,15.77
2022-12-15T10:06:43.627Z,10.33
2022-12-15T10:09:27.204Z,9.77
2022-12-15T10:12:02.429Z,8.70
2022-12-15T10:15:07.772Z,6.27
2022-12-15T10:17:55.440Z,5.87
2022-12-15T10:20:26.515Z,8.83
2022-12-15T10:22:57.179Z,7.70
2022-12-15T10:25:31.872Z,7.30
2022-12-15T10:28:17.123Z,7.83
2022-12-15T10:30:58.625Z,9.13
2022-12-15T10:33:36.278Z,10.27
2022-12-15T10:36:14.630Z,18.17
2022-12-15T10:38:46.034Z,8.33
2022-12-15T10:41:24.997Z,7.17
2022-12-15T10:46:45.473Z,15.73
2022-12-15T10:49:22.819Z,15.03
2022-12-15T10:51:58.102Z,11.10
2022-12-15T10:54:34.686Z,10.27
2022-12-15T10:57:21.544Z,8.87
2022-12-15T10:59:50.336Z,10.07
2022-12-15T11:02:30.248Z,11.50
2022-12-15T11:05:15.216Z,11.00
2022-12-15T11:07:56.383Z,10.43
2022-12-15T11:10:31.361Z,11.43
2022-12-15T11:13:18.363Z,9.27
2022-12-15T11:15:50.758Z,11.37
2022-12-15T11:18:18.122Z,12.37
2022-12-15T11:21:04.806Z,15.90
2022-12-15T11:24:05.498Z,8.33
2022-12-15T11:26:53.660Z,9.43
2022-12-15T11:29:50.218Z,9.23
2022-12-15T11:32:25.716Z,11.23
2022-12-15T11:34:53.285Z,9.07
2022-12-15T11:37:42.256Z,8.63
2022-12-15T11:40:34.938Z,8.73
2022-12-15T11:43:37.504Z,15.53
2022-12-15T11:46:24.987Z,13.30
2022-12-15T11:49:11.001Z,12.10
2022-12-15T11:52:17.542Z,8.03
2022-12-15T11:54:55.142Z,9.63
2022-12-15T11:57:53.144Z,6.50
2022-12-15T12:00:22.460Z,6.07
2022-12-15T12:03:07.507Z,8.73
2022-12-15T12:06:08.700Z,18.13
2022-12-15T12:08:56.193Z,14.93
2022-12-15T12:11:42.873Z,12.47
2022-12-15T12:14:54.665Z,8.10
2022-12-15T12:17:51.751Z,9.27
2022-12-15T12:20:25.933Z,9.97
2022-12-15T12:23:04.645Z,20.37
2022-12-15T12:25:43.286Z,15.30
2022-12-15T12:28:25.572Z,12.80
2022-12-15T12:30:57.715Z,9.93
2022-12-15T12:33:52.416Z,14.73
2022-12-15T12:36:19.908Z,13.97
2022-12-15T12:38:57.856Z,11.23
2022-12-15T12:41:45.034Z,10.60
2022-12-15T12:44:28.775Z,12.50
2022-12-15T12:46:59.153Z,13.47
2022-12-15T12:49:37.898Z,19.50
2022-12-15T12:52:34.568Z,17.30
2022-12-15T12:55:40.731Z,17.87
2022-12-15T12:58:38.591Z,14.07
2022-12-15T13:01:12.065Z,14.40
2022-12-15T13:03:42.516Z,25.63
2022-12-15T13:06:36.663Z,16.70
2022-12-15T13:09:19.161Z,19.20
2022-12-15T13:11:49.437Z,17.97
2022-12-15T13:14:41.008Z,17.10
2022-12-15T13:17:38.896Z,22.23
2022-12-15T13:20:19.644Z,20.43
2022-12-15T13:22:47.238Z,21.97
2022-12-15T13:25:38.812Z,24.00
2022-12-15T13:28:26.535Z,13.53
2022-12-15T13:31:18.508Z,14.37
2022-12-15T13:33:51.931Z,15.03
2022-12-15T13:36:37.750Z,15.10
2022-12-15T13:39:17.197Z,14.53
2022-12-15T13:42:23.868Z,12.67
2022-12-15T13:44:52.096Z,16.13
2022-12-15T13:47:29.424Z,13.33
2022-12-15T13:50:32.850Z,12.97
2022-12-15T13:53:30.571Z,27.20
2022-12-15T13:56:11.857Z,29.00
2022-12-15T13:58:50.875Z,16.20
2022-12-15T14:01:33.195Z,10.80
2022-12-15T14:04:13.370Z,10.20
2022-12-15T14:07:06.259Z,12.70
2022-12-15T14:09:39.332Z,11.90
2022-12-15T14:12:13.732Z,8.67
2022-12-15T14:14:49.323Z,9.97
2022-12-15T14:17:19.111Z,6.53
2022-12-15T14:19:50.918Z,4.40
2022-12-15T14:22:29.907Z,6.13
2022-12-15T14:25:30.757Z,6.13
2022-12-15T14:27:58.206Z,7.43
2022-12-15T14:30:31.833Z,8.27
2022-12-15T14:33:04.932Z,8.40
2022-12-15T14:35:49.414Z,6.93
2022-12-15T14:38:38.540Z,4.50
2022-12-15T14:41:07.256Z,2.50
2022-12-15T14:43:40.006Z,2.20
2022-12-15T14:46:15.359Z,2.00
2022-12-15T14:49:09.026Z,1.97
2022-12-15T14:51:46.644Z,2.83
2022-12-15T14:54:39.670Z,2.40
2022-12-15T14:57:15.151Z,2.77
2022-12-15T14:59:45.965Z,2.80
2022-12-15T15:02:26.198Z,5.10
2022-12-15T15:03:12.380Z,7.17
2022-12-15T15:05:03.601Z,3.80
2022-12-15T15:07:34.336Z,7.57
2022-12-15T15:10:05.149Z,4.90
2022-12-15T15:12:46.122Z,8.10
2022-12-15T15:15:25.035Z,11.73
2022-12-15T15:17:59.408Z,6.20
2022-12-15T15:20:34.271Z,5.27
2022-12-15T15:23:17.442Z,7.60
2022-12-15T15:26:05.869Z,4.37
2022-12-15T15:28:41.054Z,8.60
2022-12-15T15:31:30.219Z,5.10
2022-12-15T15:34:00.431Z,4.03
2022-12-15T15:36:38.619Z,10.73
2022-12-15T15:39:16.262Z,9.37
2022-12-15T15:41:43.507Z,10.50
2022-12-15T15:44:15.739Z,8.63
2022-12-15T15:46:51.160Z,8.13
2022-12-15T15:49:21.581Z,4.93
2022-12-15T15:51:49.260Z,4.87
2022-12-15T15:54:25.061Z,4.87
2022-12-15T15:56:52.294Z,8.57
2022-12-15T15:59:21.658Z,14.67
2022-12-15T16:01:58.172Z,9.20
2022-12-15T16:04:26.067Z,4.50
2022-12-15T16:06:54.075Z,3.00
2022-12-15T16:09:21.728Z,3.40
2022-12-15T16:11:49.363Z,2.57
2022-12-15T16:14:18.596Z,2.67
2022-12-15T16:16:46.309Z,3.10
2022-12-15T16:19:13.456Z,2.63
2022-12-15T16:21:42.923Z,4.60
2022-12-15T16:24:18.676Z,3.67
2022-12-15T16:26:50.516Z,2.40
2022-12-15T16:29:20.798Z,8.13
2022-12-15T16:31:48.347Z,7.50
2022-12-15T16:34:16.624Z,4.40
2022-12-15T16:36:45.336Z,2.17
2022-12-15T16:39:35.824Z,2.90
2022-12-15T16:42:03.597Z,8.63
2022-12-15T16:44:31.035Z,2.80
2022-12-15T16:46:58.623Z,2.90
2022-12-15T16:49:26.012Z,11.53
2022-12-15T16:51:54.279Z,4.70
2022-12-15T16:54:26.841Z,6.87
2022-12-15T16:56:56.551Z,4.67
2022-12-15T16:59:34.702Z,9.03
2022-12-15T17:02:27.879Z,9.83
2022-12-15T17:04:55.987Z,5.67
2022-12-15T17:07:27.478Z,3.07
2022-12-15T17:09:56.041Z,3.13
2022-12-15T17:12:23.617Z,3.60
2022-12-15T17:14:50.846Z,2.37
2022-12-15T17:17:20.114Z,2.77
2022-12-15T17:20:19.758Z,6.60
2022-12-15T17:22:34.735Z,2.70
2022-12-15T17:25:02.028Z,3.40
2022-12-15T17:27:30.353Z,2.73
2022-12-15T17:30:00.495Z,3.10
2022-12-15T17:32:27.688Z,2.50
2022-12-15T17:34:55.059Z,3.13
2022-12-15T17:37:22.631Z,5.67
2022-12-15T17:39:49.888Z,4.33
2022-12-15T17:42:20.511Z,3.77
2022-12-15T17:44:49.240Z,11.63
2022-12-15T17:47:19.078Z,7.83
2022-12-15T17:49:46.640Z,4.97
2022-12-15T17:52:26.620Z,3.30
2022-12-15T17:54:55.177Z,6.53
2022-12-15T17:57:22.553Z,3.17
2022-12-15T17:59:49.769Z,2.63
2022-12-15T18:02:17.181Z,2.37
2022-12-15T18:04:45.387Z,2.50
2022-12-15T18:07:22.771Z,12.77
2022-12-15T18:09:54.079Z,7.47
2022-12-15T18:12:40.191Z,4.40
2022-12-15T18:15:21.124Z,2.40
2022-12-15T18:17:50.645Z,3.97
2022-12-15T18:20:18.673Z,2.60
2022-12-15T18:22:49.146Z,2.30
2022-12-15T18:25:26.257Z,2.90
2022-12-15T18:27:59.340Z,4.73
2022-12-15T18:30:27.884Z,4.20
2022-12-15T18:32:58.926Z,3.00
2022-12-15T18:35:40.803Z,2.97
2022-12-15T18:38:18.925Z,3.80
2022-12-15T18:40:57.015Z,6.77
2022-12-15T18:43:32.879Z,5.77
2022-12-15T18:46:02.736Z,5.77
2022-12-15T18:48:35.183Z,7.63
2022-12-15T18:51:19.975Z,10.93
2022-12-15T18:53:49.082Z,9.67
2022-12-15T18:56:18.427Z,7.90
2022-12-15T18:58:45.953Z,10.60
2022-12-15T19:01:13.552Z,10.47
2022-12-15T19:03:41.002Z,13.60
2022-12-15T19:06:26.202Z,16.70
2022-12-15T19:08:53.672Z,17.90
2022-12-15T19:11:29.472Z,9.93
2022-12-15T19:14:01.243Z,11.87
2022-12-15T19:16:30.238Z,8.60
2022-12-15T19:18:57.413Z,7.33
2022-12-15T19:21:33.779Z,7.23
2022-12-15T19:24:01.220Z,7.57
2022-12-15T19:26:28.448Z,10.27
2022-12-15T19:28:55.971Z,11.43
2022-12-15T19:31:23.216Z,12.10
2022-12-15T19:33:50.917Z,9.47
2022-12-15T19:36:24.183Z,7.93
2022-12-15T19:38:54.982Z,8.13
2022-12-15T19:41:22.212Z,8.03
2022-12-15T19:43:49.419Z,6.97
2022-12-15T19:46:20.436Z,8.20
2022-12-15T19:48:48.650Z,8.40
2022-12-15T19:51:20.349Z,9.80
2022-12-15T19:53:49.130Z,8.50
2022-12-15T19:56:22.374Z,7.80
2022-12-15T19:58:49.940Z,8.00
2022-12-15T20:01:19.856Z,7.07
2022-12-15T20:03:52.736Z,6.87
2022-12-15T20:06:25.862Z,7.27
2022-12-15T20:08:56.245Z,9.53
2022-12-15T20:11:30.614Z,7.93
2022-12-15T20:13:58.421Z,7.30
2022-12-15T20:16:25.686Z,7.37
2022-12-15T20:18:55.552Z,8.50
2022-12-15T20:21:30.877Z,6.67
2022-12-15T20:24:09.053Z,7.00
2022-12-15T20:26:38.443Z,8.37
2022-12-15T20:29:24.190Z,7.73
2022-12-15T20:31:52.011Z,7.33
2022-12-15T20:34:19.504Z,5.60
2022-12-15T20:36:46.809Z,5.80
2022-12-15T20:39:28.313Z,5.47
2022-12-15T20:41:56.571Z,6.07
2022-12-15T20:44:24.195Z,6.03
2022-12-15T20:46:51.757Z,6.40
2022-12-15T20:49:22.416Z,5.90
2022-12-15T20:51:50.035Z,5.70
2022-12-15T20:54:21.699Z,6.07
2022-12-15T20:56:49.940Z,6.53
2022-12-15T20:59:17.905Z,5.50
2022-12-15T21:01:45.754Z,5.50
2022-12-15T21:04:30.551Z,6.73
2022-12-15T21:06:57.927Z,8.70
2022-12-15T21:09:25.230Z,9.30
2022-12-15T21:11:53.392Z,8.67
2022-12-15T21:14:24.195Z,7.93
2022-12-15T21:16:52.263Z,7.73
2022-12-15T21:19:21.177Z,8.87
2022-12-15T21:21:55.058Z,7.50
2022-12-15T21:24:28.863Z,8.90
2022-12-15T21:26:56.281Z,7.70
2022-12-15T21:29:27.704Z,7.20
2022-12-15T21:31:54.933Z,9.90
2022-12-15T21:34:22.069Z,5.93
2022-12-15T21:36:55.338Z,6.40
2022-12-15T21:39:29.949Z,6.27
2022-12-15T21:42:14.415Z,7.23
2022-12-15T21:44:42.022Z,6.40
2022-12-15T21:47:28.629Z,6.37
2022-12-15T21:49:55.809Z,7.07
2022-12-15T21:52:26.974Z,5.70
2022-12-15T21:54:54.132Z,5.13
2022-12-15T21:57:21.920Z,5.73
2022-12-15T21:59:49.097Z,5.83
2022-12-15T22:02:27.136Z,6.50
2022-12-15T22:04:54.986Z,6.10
2022-12-15T22:07:22.438Z,6.17
2022-12-15T22:09:49.650Z,6.37
2022-12-15T22:12:23.437Z,6.13
2022-12-15T22:14:51.712Z,6.00
2022-12-15T22:17:21.896Z,6.73
2022-12-15T22:19:49.174Z,6.87
2022-12-15T22:22:16.401Z,7.57
2022-12-15T22:24:43.985Z,7.23
2022-12-15T22:27:21.122Z,6.53
2022-12-15T22:29:50.131Z,7.70
2022-12-15T22:32:17.717Z,8.57
2022-12-15T22:34:45.313Z,9.37
2022-12-15T22:37:12.638Z,6.23
2022-12-15T22:39:39.891Z,5.77
2022-12-15T22:42:08.046Z,9.77
2022-12-15T22:44:37.871Z,6.20
2022-12-15T22:47:06.614Z,9.43
2022-12-15T22:49:40.469Z,7.97
2022-12-15T22:52:19.705Z,5.67
2022-12-15T22:54:47.730Z,6.23
2022-12-15T22:57:24.369Z,6.57
2022-12-15T23:00:02.865Z,7.73
2022-12-15T23:02:36.676Z,5.87
2022-12-15T23:05:06.061Z,9.00
2022-12-15T23:07:34.693Z,5.30
2022-12-15T23:10:02.379Z,8.13
2022-12-15T23:12:29.509Z,5.80
2022-12-15T23:14:56.711Z,6.83
2022-12-15T23:17:23.938Z,9.10
2022-12-15T23:19:51.486Z,7.63
2022-12-15T23:22:18.719Z,7.33
2022-12-15T23:24:45.884Z,10.47
2022-12-15T23:27:13.148Z,8.10
2022-12-15T23:29:40.370Z,9.73
2022-12-15T23:32:07.622Z,10.57
2022-12-15T23:34:35.550Z,8.03
2022-12-15T23:37:02.975Z,7.67
2022-12-15T23:39:30.157Z,7.33
2022-12-15T23:41:57.360Z,10.83
2022-12-15T23:44:24.618Z,8.10
2022-12-15T23:46:51.882Z,9.07
2022-12-15T23:49:19.062Z,8.17
2022-12-15T23:51:46.228Z,10.23
2022-12-15T23:54:15.277Z,9.40
2022-12-15T23:56:42.624Z,7.20
2022-12-15T23:59:10.145Z,11.00
